Hlavní strana
METAR-TAF:

METAR-TAF

Letiště :

Pskov, Rusko

zeměpisná šířka: 57-47-06N, zeměpisná délka: 028-23-54E, výška: 47 m

Aktuální stav počasí

Zpráva byla vytvořena před 52 minutami, v 17:00 UTC
Jihozápadní vítr 8 kt
Teplota -5°C
Vlhkost vzduchu 79%
Tlak 1000 hPa
Viditelnost: 8000 m

METAR: ULOO 181700Z AUTO 22004MPS 8000 // ///057/// M05/M08 Q1000 RMK QFE746

Čas: 20:52 (17:52 UTC)

Předpověď počasí

Zpráva byla vytvořena před 6 hodinami a 55 minutami, v 10:57 UTC
Předpověď platná od 18 v 12 UTC do 18 v 21 UTC
Západojihozápadní vítr 6 kt
Viditelnost: 5000 m
Oblačno až skoro zataženo ve výšce 1200 ft
kouřmo
Dočasný
od 18 v 12 UTC do 18 v 21 UTC
Viditelnost: 3100 m
Oblačno až skoro zataženo ve výšce 1100 ft
Oblačno až skoro zataženo ve výšce 1500 ft, Cumulonimbus.
slabé sněhové přeháňky, kouřmo

TAF: ULOO 181057Z 1812/1821 24003MPS 5000 BR BKN012 TEMPO 1812/1821 3100 -SHSN BR BKN011 BKN015CB

Stav a předpovědi počasí z více než 4 000 letišť (zprávy METAR a TAF).

Červené a žluté tečky na mapě představují dostupné meteorologické stanice.

Když kurzor umístíte na tečku, zobrazí se název stanice.

Pak kliknutím zobrazíte stav a předpověď počasí.

Chcete-li změnit mapu, kliknutím na zelené tlačítko se znaménkem +mapu přiblížíte, kliknutím na zelené tlačítko se znaménkem – mapu oddálíte a kliknutím na zelené šipky přejdete na sousední mapy.


METAR-TAF: